Time;durP1;ratioP1;P1;durP2;ratioP2;P2;SDS_P1;SDS_P2;PMS_P1;PMS_P2;Temp;Humidity;BMP_temperature;BMP_pressure;BME280_temperature;BME280_humidity;BME280_pressure;Samples;Min_cycle;Max_cycle;Signal;HPM_P1;HPM_P2
2023/03/21 00:00:47;;;;;;;8.55;6.70;;;;;;;;;;5008937;28;20100;-76
2023/03/21 00:03:13;;;;;;;8.88;6.80;;;;;;;;;;5010400;28;20394;-76
2023/03/21 00:05:40;;;;;;;8.23;6.82;;;;;;;;;;5016351;28;20037;-77
2023/03/21 00:08:06;;;;;;;10.32;6.72;;;;;;;;;;5013784;28;20048;-75
2023/03/21 00:10:33;;;;;;;10.48;7.10;;;;;;;;;;5011215;28;20049;-76
2023/03/21 00:12:59;;;;;;;10.00;6.95;;;;;;;;;;5014018;28;20014;-76
2023/03/21 00:15:26;;;;;;;9.43;6.53;;;;;;;;;;4985638;28;20024;-76
2023/03/21 00:18:03;;;;;;;8.07;7.00;;;;;;;;;;5017724;28;20021;-75
2023/03/21 00:20:36;;;;;;;8.98;6.72;;;;;;;;;;5012635;28;20018;-76
2023/03/21 00:23:03;;;;;;;9.35;6.63;;;;;;;;;;5012319;28;20026;-76
2023/03/21 00:25:31;;;;;;;11.63;6.82;;;;;;;;;;4987836;28;20485;-75
2023/03/21 00:27:58;;;;;;;9.82;6.68;;;;;;;;;;5009583;28;20038;-76
2023/03/21 00:30:24;;;;;;;9.70;6.57;;;;;;;;;;5006387;28;20471;-76
2023/03/21 00:32:50;;;;;;;11.45;7.90;;;;;;;;;;4991220;28;20080;-75
2023/03/21 00:35:16;;;;;;;10.98;7.15;;;;;;;;;;5011260;28;20128;-74
2023/03/21 00:37:43;;;;;;;9.82;7.13;;;;;;;;;;4990940;28;20054;-77
2023/03/21 00:40:10;;;;;;;8.27;6.97;;;;;;;;;;5010861;28;20065;-77
2023/03/21 00:42:36;;;;;;;7.38;6.10;;;;;;;;;;5007156;28;20416;-75
2023/03/21 00:45:03;;;;;;;8.90;6.32;;;;;;;;;;5009482;28;20037;-76
2023/03/21 00:47:29;;;;;;;10.32;6.47;;;;;;;;;;5006407;28;20022;-76
2023/03/21 00:49:56;;;;;;;7.80;6.65;;;;;;;;;;5007645;28;20030;-77
2023/03/21 00:52:22;;;;;;;7.00;6.25;;;;;;;;;;5005904;28;20029;-76
2023/03/21 00:54:48;;;;;;;8.15;6.70;;;;;;;;;;5008304;28;20145;-77
2023/03/21 00:57:15;;;;;;;9.40;6.05;;;;;;;;;;5010097;28;20075;-77
2023/03/21 00:59:41;;;;;;;7.57;6.22;;;;;;;;;;5007566;28;20101;-77
2023/03/21 01:02:07;;;;;;;7.47;6.38;;;;;;;;;;5010972;28;20437;-75
2023/03/21 01:04:34;;;;;;;11.75;6.75;;;;;;;;;;5009807;28;20018;-75
2023/03/21 01:07:00;;;;;;;10.02;6.30;;;;;;;;;;5011000;28;20052;-76
2023/03/21 01:09:26;;;;;;;7.90;6.03;;;;;;;;;;5009022;28;20497;-76
2023/03/21 01:11:53;;;;;;;8.98;6.60;;;;;;;;;;4993590;28;20056;-75
2023/03/21 01:14:20;;;;;;;6.80;5.88;;;;;;;;;;5015399;28;20105;-75
2023/03/21 01:16:46;;;;;;;11.57;6.03;;;;;;;;;;5011541;28;20022;-75
2023/03/21 01:19:17;;;;;;;7.95;5.78;;;;;;;;;;5012955;28;20034;-77
2023/03/21 01:21:44;;;;;;;8.50;6.53;;;;;;;;;;5016160;28;20029;-76
2023/03/21 01:24:10;;;;;;;9.18;5.88;;;;;;;;;;5011176;28;20033;-75
2023/03/21 01:26:36;;;;;;;7.70;6.15;;;;;;;;;;5013698;28;20013;-77
2023/03/21 01:29:03;;;;;;;9.35;6.47;;;;;;;;;;5009739;28;20117;-75
2023/03/21 01:31:30;;;;;;;8.02;6.43;;;;;;;;;;5018845;28;20053;-76
2023/03/21 01:33:56;;;;;;;12.35;6.80;;;;;;;;;;5011606;28;20168;-74
2023/03/21 01:36:23;;;;;;;7.95;6.55;;;;;;;;;;5009432;28;20052;-75
2023/03/21 01:38:50;;;;;;;8.57;6.63;;;;;;;;;;5018065;28;20092;-77
2023/03/21 01:41:33;;;;;;;9.98;6.63;;;;;;;;;;5010146;28;20038;-74
2023/03/21 01:43:59;;;;;;;8.05;6.57;;;;;;;;;;5013062;28;20120;-75
2023/03/21 01:46:31;;;;;;;8.35;7.05;;;;;;;;;;4989987;28;20555;-78
2023/03/21 01:48:57;;;;;;;;;;;;;;;;;;5015103;28;20061;-76
2023/03/21 01:51:25;;;;;;;10.02;7.15;;;;;;;;;;5013821;28;19990;-76
2023/03/21 01:53:51;;;;;;;9.50;7.57;;;;;;;;;;5012825;28;20025;-77
2023/03/21 01:56:20;;;;;;;11.45;7.38;;;;;;;;;;5016688;28;20541;-76
2023/03/21 01:58:46;;;;;;;13.25;7.70;;;;;;;;;;5010605;28;20425;-77
2023/03/21 02:01:14;;;;;;;8.60;7.28;;;;;;;;;;5007390;28;20141;-78
2023/03/21 02:03:49;;;;;;;9.65;7.53;;;;;;;;;;5007885;28;20025;-76
2023/03/21 02:06:18;;;;;;;9.75;7.65;;;;;;;;;;5015272;28;20021;-78
2023/03/21 02:08:45;;;;;;;10.13;7.25;;;;;;;;;;5013428;28;20680;-76
2023/03/21 02:11:11;;;;;;;7.68;6.63;;;;;;;;;;5015826;28;20029;-76
2023/03/21 02:13:37;;;;;;;7.78;6.55;;;;;;;;;;5005994;28;20053;-76
2023/03/21 02:16:14;;;;;;;11.15;7.65;;;;;;;;;;5012477;28;20036;-76
2023/03/21 02:18:49;;;;;;;10.82;7.22;;;;;;;;;;5012905;28;20034;-76
2023/03/21 02:21:30;;;;;;;14.00;6.95;;;;;;;;;;5012909;28;20033;-77
2023/03/21 02:24:15;;;;;;;9.73;7.03;;;;;;;;;;5019955;28;20163;-76
2023/03/21 02:26:53;;;;;;;12.20;6.97;;;;;;;;;;5014733;28;20033;-77
2023/03/21 02:29:20;;;;;;;9.93;6.70;;;;;;;;;;5008954;28;20030;-76
2023/03/21 02:32:05;;;;;;;14.18;7.03;;;;;;;;;;5013973;28;20021;-76
2023/03/21 02:34:50;;;;;;;9.63;6.88;;;;;;;;;;5007997;28;20558;-76
2023/03/21 02:37:20;;;;;;;9.50;6.80;;;;;;;;;;5010181;28;20105;-76
2023/03/21 02:40:16;;;;;;;10.45;6.95;;;;;;;;;;4988495;28;20025;-77
2023/03/21 02:42:45;;;;;;;8.07;6.90;;;;;;;;;;4996758;28;20132;-76
2023/03/21 02:45:19;;;;;;;7.63;6.82;;;;;;;;;;5008066;28;20032;-76
2023/03/21 02:47:48;;;;;;;9.38;7.00;;;;;;;;;;5010403;28;20030;-77
2023/03/21 02:50:20;;;;;;;10.75;7.07;;;;;;;;;;5020893;28;20116;-76
2023/03/21 02:52:47;;;;;;;8.63;6.97;;;;;;;;;;5012097;28;20025;-76
2023/03/21 02:55:17;;;;;;;9.43;6.47;;;;;;;;;;4998626;28;20114;-78
2023/03/21 02:57:44;;;;;;;9.13;6.25;;;;;;;;;;5016254;28;20491;-77
2023/03/21 03:00:13;;;;;;;7.97;6.18;;;;;;;;;;5011061;28;20409;-77
2023/03/21 03:02:40;;;;;;;8.70;6.18;;;;;;;;;;5014251;28;20038;-75
2023/03/21 03:05:14;;;;;;;8.95;5.40;;;;;;;;;;5008819;28;20029;-77
2023/03/21 03:07:48;;;;;;;9.52;5.97;;;;;;;;;;5013924;28;20030;-77
2023/03/21 03:10:37;;;;;;;9.80;6.68;;;;;;;;;;5015560;28;20064;-77
2023/03/21 03:13:15;;;;;;;9.48;6.65;;;;;;;;;;5013013;28;20124;-76
2023/03/21 03:15:52;;;;;;;10.32;7.45;;;;;;;;;;5009759;28;20054;-77
2023/03/21 03:18:18;;;;;;;11.68;8.98;;;;;;;;;;5017186;28;20085;-76
2023/03/21 03:20:47;;;;;;;12.75;8.77;;;;;;;;;;5019506;28;20028;-77
2023/03/21 03:23:32;;;;;;;13.75;8.95;;;;;;;;;;5021694;28;20187;-76
2023/03/21 03:26:17;;;;;;;10.80;8.60;;;;;;;;;;5013254;28;20101;-77
2023/03/21 03:28:50;;;;;;;9.88;8.38;;;;;;;;;;4992034;28;20034;-77
2023/03/21 03:31:20;;;;;;;11.68;8.60;;;;;;;;;;5006960;28;20048;-77
2023/03/21 03:33:50;;;;;;;8.15;7.13;;;;;;;;;;5014529;28;20033;-76
2023/03/21 03:36:18;;;;;;;9.73;6.97;;;;;;;;;;5009969;28;20478;-77
2023/03/21 03:38:46;;;;;;;9.80;6.93;;;;;;;;;;5008443;28;20386;-77
2023/03/21 03:41:16;;;;;;;10.13;6.68;;;;;;;;;;5009448;28;20137;-77
2023/03/21 03:43:49;;;;;;;9.93;6.82;;;;;;;;;;5007540;28;20161;-78
2023/03/21 03:46:23;;;;;;;9.15;7.03;;;;;;;;;;5010930;28;20549;-77
2023/03/21 03:48:55;;;;;;;10.57;7.43;;;;;;;;;;5005095;28;20402;-76
2023/03/21 03:51:21;;;;;;;;;;;;;;;;;;5018233;28;20536;-76
2023/03/21 03:54:02;;;;;;;10.13;6.70;;;;;;;;;;5005702;28;19909;-77
2023/03/21 03:56:29;;;;;;;8.50;7.45;;;;;;;;;;5011994;28;20112;-78
2023/03/21 03:58:56;;;;;;;10.10;6.88;;;;;;;;;;5008669;28;20101;-76
2023/03/21 04:01:22;;;;;;;7.47;6.50;;;;;;;;;;5015541;28;20026;-76
2023/03/21 04:03:49;;;;;;;11.02;6.97;;;;;;;;;;5003647;28;20560;-77
2023/03/21 04:06:15;;;;;;;13.50;6.95;;;;;;;;;;5009726;28;20033;-76
2023/03/21 04:08:42;;;;;;;9.05;7.60;;;;;;;;;;5012956;28;20306;-77
2023/03/21 04:11:09;;;;;;;8.93;6.65;;;;;;;;;;5007476;28;20604;-76
2023/03/21 04:13:36;;;;;;;8.45;7.07;;;;;;;;;;5012041;28;20474;-76
2023/03/21 04:16:03;;;;;;;9.68;6.78;;;;;;;;;;5004634;28;20057;-77
2023/03/21 04:18:29;;;;;;;11.07;7.35;;;;;;;;;;5008651;28;20082;-76
2023/03/21 04:20:56;;;;;;;11.25;7.72;;;;;;;;;;5013122;28;20022;-76
2023/03/21 04:23:22;;;;;;;9.90;7.82;;;;;;;;;;5008733;28;20084;-76
2023/03/21 04:25:49;;;;;;;10.65;7.25;;;;;;;;;;5003361;28;20026;-77
2023/03/21 04:28:16;;;;;;;11.07;8.02;;;;;;;;;;5003387;28;20038;-76
2023/03/21 04:30:42;;;;;;;11.30;8.27;;;;;;;;;;5006529;28;20227;-76
2023/03/21 04:33:08;;;;;;;13.02;8.52;;;;;;;;;;5004535;28;20026;-76
2023/03/21 04:35:35;;;;;;;15.02;8.85;;;;;;;;;;4992406;28;20364;-76
2023/03/21 04:38:01;;;;;;;10.77;8.80;;;;;;;;;;5019749;28;20033;-77
2023/03/21 04:40:28;;;;;;;12.90;9.18;;;;;;;;;;5008932;28;20046;-77
2023/03/21 04:42:54;;;;;;;9.52;8.27;;;;;;;;;;5012883;28;20034;-76
2023/03/21 04:45:20;;;;;;;12.13;8.90;;;;;;;;;;5009184;28;20348;-76
2023/03/21 04:47:46;;;;;;;11.70;8.45;;;;;;;;;;5012159;28;20108;-77
2023/03/21 04:50:13;;;;;;;13.82;8.98;;;;;;;;;;5005731;28;20105;-76
2023/03/21 04:52:39;;;;;;;11.23;8.65;;;;;;;;;;5012331;28;20103;-76
2023/03/21 04:55:08;;;;;;;12.75;9.07;;;;;;;;;;5016544;28;20040;-76
2023/03/21 04:57:35;;;;;;;9.98;7.38;;;;;;;;;;4995450;28;20164;-78
2023/03/21 05:00:01;;;;;;;12.20;8.05;;;;;;;;;;5012040;28;20040;-77
2023/03/21 05:02:27;;;;;;;9.55;8.18;;;;;;;;;;5009054;28;20625;-77
2023/03/21 05:04:56;;;;;;;12.32;7.15;;;;;;;;;;5010329;28;20038;-77
2023/03/21 05:07:25;;;;;;;9.23;6.80;;;;;;;;;;5006770;28;20052;-77
2023/03/21 05:09:51;;;;;;;8.05;6.57;;;;;;;;;;5011422;28;20037;-76
2023/03/21 05:12:18;;;;;;;9.00;6.32;;;;;;;;;;5005102;28;20029;-77
2023/03/21 05:14:44;;;;;;;9.13;6.53;;;;;;;;;;5011456;28;20033;-76
2023/03/21 05:17:14;;;;;;;6.70;6.00;;;;;;;;;;5011926;28;20105;-77
2023/03/21 05:19:41;;;;;;;11.68;6.80;;;;;;;;;;4994125;28;20134;-76
2023/03/21 05:22:08;;;;;;;7.57;5.95;;;;;;;;;;5007384;28;20076;-77
2023/03/21 05:24:38;;;;;;;10.30;6.20;;;;;;;;;;5008487;28;20034;-76
2023/03/21 05:27:04;;;;;;;7.60;5.75;;;;;;;;;;5014184;28;20034;-77
2023/03/21 05:29:31;;;;;;;7.43;6.07;;;;;;;;;;5009416;28;20034;-76
2023/03/21 05:31:58;;;;;;;8.05;6.72;;;;;;;;;;5014848;28;20026;-78
2023/03/21 05:34:25;;;;;;;6.80;6.10;;;;;;;;;;5006400;28;20037;-76
2023/03/21 05:36:51;;;;;;;10.95;6.45;;;;;;;;;;5010272;28;20523;-77
2023/03/21 05:39:18;;;;;;;8.57;6.53;;;;;;;;;;5007133;28;20049;-77
2023/03/21 05:41:44;;;;;;;7.97;6.05;;;;;;;;;;5009004;28;20052;-78
2023/03/21 05:44:10;;;;;;;9.48;6.22;;;;;;;;;;5005236;28;20025;-77
2023/03/21 05:46:37;;;;;;;9.43;6.00;;;;;;;;;;5008093;28;20079;-78
2023/03/21 05:49:03;;;;;;;8.68;6.40;;;;;;;;;;5012070;28;20030;-76
2023/03/21 05:51:29;;;;;;;13.10;10.00;;;;;;;;;;5014356;28;20121;-77
2023/03/21 05:53:56;;;;;;;14.85;10.02;;;;;;;;;;5010417;28;20477;-77
2023/03/21 05:56:22;;;;;;;13.00;8.40;;;;;;;;;;5007108;28;20013;-77
2023/03/21 05:58:48;;;;;;;7.78;6.93;;;;;;;;;;5009929;28;20664;-77
2023/03/21 06:01:14;;;;;;;10.48;6.70;;;;;;;;;;5008642;28;20128;-78
2023/03/21 06:03:41;;;;;;;10.13;6.30;;;;;;;;;;5007174;28;20021;-76
2023/03/21 06:06:07;;;;;;;15.77;8.25;;;;;;;;;;5013182;28;20046;-75
2023/03/21 06:08:33;;;;;;;11.88;7.75;;;;;;;;;;5008348;28;20128;-73
2023/03/21 06:11:00;;;;;;;9.60;8.02;;;;;;;;;;5014621;28;20164;-78
2023/03/21 06:13:26;;;;;;;8.80;6.95;;;;;;;;;;5005756;28;20049;-75
2023/03/21 06:15:52;;;;;;;8.77;6.50;;;;;;;;;;5017219;28;20017;-76
2023/03/21 06:18:18;;;;;;;11.25;6.95;;;;;;;;;;5011463;28;20040;-76
2023/03/21 06:20:44;;;;;;;11.35;7.13;;;;;;;;;;5012517;28;20057;-78
2023/03/21 06:23:11;;;;;;;11.48;6.60;;;;;;;;;;5007779;28;20013;-76
2023/03/21 06:25:37;;;;;;;16.25;7.43;;;;;;;;;;5008279;28;20092;-76
2023/03/21 06:28:03;;;;;;;8.82;6.65;;;;;;;;;;5005961;28;20028;-75
2023/03/21 06:30:30;;;;;;;10.20;6.90;;;;;;;;;;5006550;28;20030;-75
2023/03/21 06:32:56;;;;;;;10.95;6.88;;;;;;;;;;5007269;28;20140;-77
2023/03/21 06:35:22;;;;;;;12.20;7.95;;;;;;;;;;5010755;28;20506;-75
2023/03/21 06:37:48;;;;;;;9.73;7.63;;;;;;;;;;5004363;28;20022;-74
2023/03/21 06:40:14;;;;;;;12.65;8.32;;;;;;;;;;5009264;28;20041;-76
2023/03/21 06:42:41;;;;;;;12.15;9.52;;;;;;;;;;5008169;28;20404;-77
2023/03/21 06:45:07;;;;;;;10.52;7.93;;;;;;;;;;5006967;28;20033;-77
2023/03/21 06:47:33;;;;;;;10.20;8.48;;;;;;;;;;5008564;28;20101;-76
2023/03/21 06:49:59;;;;;;;10.48;8.10;;;;;;;;;;5003973;28;20072;-75
2023/03/21 06:52:26;;;;;;;9.75;7.28;;;;;;;;;;4985309;28;20018;-78
2023/03/21 06:54:52;;;;;;;11.10;7.65;;;;;;;;;;5005387;28;20057;-76
2023/03/21 06:57:20;;;;;;;10.15;6.78;;;;;;;;;;5010154;28;20022;-76
2023/03/21 06:59:47;;;;;;;8.65;7.07;;;;;;;;;;5006712;28;20041;-75
2023/03/21 07:02:13;;;;;;;10.02;7.03;;;;;;;;;;5008669;28;20533;-75
2023/03/21 07:04:39;;;;;;;11.75;6.57;;;;;;;;;;5006796;28;20140;-75
2023/03/21 07:07:05;;;;;;;13.98;6.88;;;;;;;;;;5005564;28;20034;-76
2023/03/21 07:09:31;;;;;;;9.30;6.38;;;;;;;;;;5012723;28;20034;-78
2023/03/21 07:11:58;;;;;;;12.32;6.15;;;;;;;;;;5004799;28;20032;-75
2023/03/21 07:14:24;;;;;;;7.28;5.63;;;;;;;;;;5010671;28;20060;-75
2023/03/21 07:16:50;;;;;;;7.45;6.20;;;;;;;;;;5003761;28;20021;-76
2023/03/21 07:19:17;;;;;;;8.52;5.93;;;;;;;;;;5010122;28;20052;-77
2023/03/21 07:21:43;;;;;;;7.50;5.90;;;;;;;;;;5006449;28;20025;-77
2023/03/21 07:24:09;;;;;;;8.00;6.20;;;;;;;;;;5010472;28;20056;-77
2023/03/21 07:26:36;;;;;;;9.25;5.90;;;;;;;;;;5009993;28;20072;-77
2023/03/21 07:29:02;;;;;;;9.88;6.05;;;;;;;;;;5015086;28;20044;-77
2023/03/21 07:31:29;;;;;;;10.90;6.90;;;;;;;;;;5003776;28;20025;-77
2023/03/21 07:33:55;;;;;;;10.75;6.03;;;;;;;;;;5010156;28;20040;-77
2023/03/21 07:36:21;;;;;;;11.30;6.68;;;;;;;;;;4985349;28;20116;-78
2023/03/21 07:45:30;;;;;;;10.05;6.07;;;;;;;;;;4969147;28;20044;-83
2023/03/21 07:47:57;;;;;;;14.43;7.97;;;;;;;;;;5006179;28;20026;-81
2023/03/21 07:50:23;;;;;;;18.13;10.40;;;;;;;;;;4992982;28;20645;-82
2023/03/21 07:52:57;;;;;;;17.05;10.15;;;;;;;;;;5002181;28;20056;-83
2023/03/21 07:55:23;;;;;;;14.77;8.85;;;;;;;;;;4991150;28;20057;-81
2023/03/21 07:57:50;;;;;;;10.85;7.88;;;;;;;;;;4994644;28;20025;-83
2023/03/21 08:00:21;;;;;;;13.23;7.57;;;;;;;;;;5005908;28;20422;-86
2023/03/21 08:03:10;;;;;;;;;;;;;;;;;;;;;
2023/03/21 08:05:45;;;;;;;9.32;7.07;;;;;;;;;;5012162;28;20025;-85
2023/03/21 08:08:49;;;;;;;11.77;6.40;;;;;;;;;;4988039;28;20049;-85
2023/03/21 08:11:43;;;;;;;8.18;6.15;;;;;;;;;;5006388;28;20448;-86
2023/03/21 08:14:09;;;;;;;9.50;6.10;;;;;;;;;;5011751;28;20050;-84
2023/03/21 08:16:35;;;;;;;9.40;6.70;;;;;;;;;;5023806;28;20048;-82
2023/03/21 08:19:22;;;;;;;9.75;6.80;;;;;;;;;;4993881;28;20574;-85
2023/03/21 08:24:59;;;;;;;11.40;6.57;;;;;;;;;;5020137;28;20041;-84
2023/03/21 08:27:45;;;;;;;14.40;7.85;;;;;;;;;;5011486;28;20111;-82
2023/03/21 08:30:22;;;;;;;12.40;7.82;;;;;;;;;;4993677;28;20072;-86
2023/03/21 08:32:50;;;;;;;10.90;7.45;;;;;;;;;;5013135;28;20017;-84
2023/03/21 08:35:42;;;;;;;;;;;;;;;;;;;;;
2023/03/21 08:38:31;;;;;;;11.43;7.72;;;;;;;;;;5010855;28;20036;-83
2023/03/21 08:40:59;;;;;;;8.00;6.57;;;;;;;;;;5006313;28;20037;-83
2023/03/21 08:44:16;;;;;;;;;;;;;;;;;;;;;
2023/03/21 08:50:14;;;;;;;8.18;5.40;;;;;;;;;;5003955;28;20124;-83
2023/03/21 09:05:24;;;;;;;;;;;;;;;;;;;;;
2023/03/21 09:15:05;;;;;;;;;;;;;;;;;;;;;
2023/03/21 09:18:01;;;;;;;;;;;;;;;;;;;;;
2023/03/21 09:30:40;;;;;;;;;;;;;;;;;;;;;
2023/03/21 09:33:42;;;;;;;11.70;7.35;;;;;;;;;;4918210;29;20520;-84
2023/03/21 09:42:41;;;;;;;8.35;5.72;;;;;;;;;;4920975;28;20044;-84
2023/03/21 09:45:39;;;;;;;;;;;;;;;;;;;;;
2023/03/21 09:48:31;;;;;;;8.85;4.93;;;;;;;;;;4924862;29;20399;-83
2023/03/21 09:54:57;;;;;;;5.88;4.03;;;;;;;;;;4923683;29;20054;-84
2023/03/21 09:58:24;;;;;;;;;;;;;;;;;;;;;
2023/03/21 10:04:36;;;;;;;8.25;4.53;;;;;;;;;;4918402;29;20050;-83
2023/03/21 10:07:33;;;;;;;6.63;4.20;;;;;;;;;;4886681;29;20041;-83
2023/03/21 10:10:42;;;;;;;;;;;;;;;;;;;;;
2023/03/21 10:16:40;;;;;;;11.10;5.22;;;;;;;;;;4891712;29;20072;-85
2023/03/21 10:19:16;;;;;;;5.43;4.43;;;;;;;;;;4987695;28;20038;-84
2023/03/21 10:21:45;;;;;;;6.18;4.78;;;;;;;;;;4995930;28;20033;-86
2023/03/21 10:24:16;;;;;;;5.63;4.13;;;;;;;;;;4997264;28;20044;-84
2023/03/21 10:26:43;;;;;;;9.57;4.53;;;;;;;;;;5010836;28;20694;-84
2023/03/21 10:29:11;;;;;;;6.32;4.63;;;;;;;;;;5004458;28;20608;-83
2023/03/21 10:31:46;;;;;;;8.63;4.93;;;;;;;;;;5010739;28;20113;-84
2023/03/21 10:34:25;;;;;;;4.25;3.72;;;;;;;;;;4995825;28;20049;-86
2023/03/21 10:36:52;;;;;;;6.47;4.15;;;;;;;;;;4994608;28;20612;-84
2023/03/21 10:39:40;;;;;;;5.05;3.80;;;;;;;;;;4990695;28;20469;-83
2023/03/21 10:42:12;;;;;;;7.32;4.55;;;;;;;;;;4990558;28;20128;-81
2023/03/21 10:44:41;;;;;;;5.70;4.47;;;;;;;;;;4985580;28;20031;-84
2023/03/21 10:47:19;;;;;;;6.75;4.25;;;;;;;;;;4996148;28;20548;-87
2023/03/21 10:49:46;;;;;;;7.50;4.82;;;;;;;;;;4998015;28;20803;-87
2023/03/21 10:52:24;;;;;;;6.93;4.57;;;;;;;;;;4987417;28;20550;-85
2023/03/21 10:55:09;;;;;;;6.78;3.80;;;;;;;;;;5000809;28;20030;-84
2023/03/21 10:57:36;;;;;;;4.20;3.80;;;;;;;;;;4989292;28;20531;-83
2023/03/21 11:00:14;;;;;;;11.95;4.70;;;;;;;;;;4987956;28;20080;-85
2023/03/21 11:02:47;;;;;;;7.07;3.83;;;;;;;;;;4984490;28;20479;-85
2023/03/21 11:05:22;;;;;;;4.65;3.75;;;;;;;;;;4994995;28;20607;-85
2023/03/21 11:07:57;;;;;;;6.07;3.97;;;;;;;;;;4993426;28;20022;-86
2023/03/21 11:10:36;;;;;;;6.72;3.75;;;;;;;;;;4998476;28;20034;-85
2023/03/21 11:13:20;;;;;;;4.95;3.05;;;;;;;;;;4981946;28;20483;-85
2023/03/21 11:16:07;;;;;;;5.75;3.60;;;;;;;;;;4983049;28;20042;-85
2023/03/21 11:19:00;;;;;;;9.13;3.25;;;;;;;;;;4995879;28;20494;-85
2023/03/21 11:21:29;;;;;;;7.97;4.43;;;;;;;;;;4986080;28;20069;-85
2023/03/21 11:24:02;;;;;;;6.53;4.38;;;;;;;;;;4988562;28;20076;-85
2023/03/21 11:33:03;;;;;;;4.15;3.00;;;;;;;;;;4999376;28;20184;-82
2023/03/21 11:35:50;;;;;;;3.83;2.72;;;;;;;;;;4984710;28;20069;-82
2023/03/21 11:38:30;;;;;;;5.18;2.70;;;;;;;;;;4988178;28;20085;-83
2023/03/21 11:40:58;;;;;;;4.85;2.80;;;;;;;;;;4984722;28;20145;-85
2023/03/21 11:43:39;;;;;;;8.13;3.17;;;;;;;;;;4990493;28;20054;-82
2023/03/21 11:46:06;;;;;;;4.03;2.67;;;;;;;;;;4990044;28;20054;-83
2023/03/21 11:48:42;;;;;;;3.90;2.67;;;;;;;;;;4986802;28;20070;-81
2023/03/21 11:51:33;;;;;;;4.00;2.75;;;;;;;;;;4983365;28;20613;-83
2023/03/21 11:54:05;;;;;;;4.63;2.45;;;;;;;;;;4988959;28;20290;-82
2023/03/21 11:56:34;;;;;;;5.03;2.70;;;;;;;;;;4997880;28;20030;-84
2023/03/21 11:59:14;;;;;;;6.32;4.65;;;;;;;;;;4987293;28;20053;-83
2023/03/21 12:01:44;;;;;;;3.47;2.60;;;;;;;;;;4996578;28;20022;-82
2023/03/21 12:04:38;;;;;;;5.30;2.50;;;;;;;;;;4988698;28;20324;-79
2023/03/21 12:07:44;;;;;;;4.57;2.63;;;;;;;;;;4987859;28;20038;-83
2023/03/21 12:10:24;;;;;;;3.90;2.20;;;;;;;;;;4985908;28;20112;-82
2023/03/21 12:15:59;;;;;;;3.25;2.15;;;;;;;;;;4979796;28;20054;-83
2023/03/21 12:21:20;;;;;;;;;;;;;;;;;;4955703;28;20074;-82
2023/03/21 12:23:58;;;;;;;2.70;1.65;;;;;;;;;;4987632;28;19920;-82
2023/03/21 12:26:29;;;;;;;2.65;2.15;;;;;;;;;;4988371;28;20029;-81
2023/03/21 12:29:04;;;;;;;1.90;1.50;;;;;;;;;;4992736;28;20372;-80
2023/03/21 12:31:41;;;;;;;3.85;1.38;;;;;;;;;;4986353;28;20359;-82
2023/03/21 12:34:34;;;;;;;4.05;1.20;;;;;;;;;;4990831;28;20030;-84
2023/03/21 12:37:06;;;;;;;3.85;1.83;;;;;;;;;;4965719;28;20034;-81
2023/03/21 12:39:36;;;;;;;2.45;1.60;;;;;;;;;;4981766;28;20026;-81
2023/03/21 12:42:09;;;;;;;1.58;1.30;;;;;;;;;;4988157;28;20137;-80
2023/03/21 12:44:37;;;;;;;2.83;1.40;;;;;;;;;;4998450;28;20030;-80
2023/03/21 12:47:07;;;;;;;2.60;1.25;;;;;;;;;;4999449;28;20033;-80
2023/03/21 12:49:47;;;;;;;4.43;1.80;;;;;;;;;;4988612;28;20045;-82
2023/03/21 12:52:23;;;;;;;1.38;1.25;;;;;;;;;;4987802;28;20529;-81
2023/03/21 12:54:52;;;;;;;3.70;1.80;;;;;;;;;;4995768;28;20490;-82
2023/03/21 12:57:18;;;;;;;2.10;1.52;;;;;;;;;;4993428;28;20501;-80
2023/03/21 12:59:44;;;;;;;1.50;1.08;;;;;;;;;;4993684;28;20113;-81
2023/03/21 13:02:34;;;;;;;2.45;1.30;;;;;;;;;;4990714;28;20030;-84
2023/03/21 13:05:18;;;;;;;3.20;1.20;;;;;;;;;;4971580;28;20042;-84
2023/03/21 13:07:51;;;;;;;3.08;1.23;;;;;;;;;;4999459;28;20030;-87
2023/03/21 13:10:25;;;;;;;2.08;1.20;;;;;;;;;;4996116;28;20038;-79
2023/03/21 13:13:03;;;;;;;5.57;1.38;;;;;;;;;;4994663;28;20061;-83
2023/03/21 13:15:51;;;;;;;1.48;1.08;;;;;;;;;;4992229;28;20030;-78
2023/03/21 13:18:23;;;;;;;2.55;1.58;;;;;;;;;;4980768;28;20030;-87
2023/03/21 13:20:57;;;;;;;10.00;1.48;;;;;;;;;;4993957;28;20173;-86
2023/03/21 13:23:24;;;;;;;6.13;1.90;;;;;;;;;;4997212;28;20014;-80
2023/03/21 13:25:57;;;;;;;3.75;1.48;;;;;;;;;;4995668;28;20025;-87
2023/03/21 13:28:35;;;;;;;5.43;1.35;;;;;;;;;;4992415;28;20022;-86
2023/03/21 13:31:22;;;;;;;1.58;1.10;;;;;;;;;;4999506;28;20036;-81
2023/03/21 13:33:49;;;;;;;2.22;1.15;;;;;;;;;;4995059;28;20029;-84
2023/03/21 13:36:18;;;;;;;4.07;1.48;;;;;;;;;;4990005;28;20105;-79
2023/03/21 13:39:01;;;;;;;1.80;1.23;;;;;;;;;;4997066;28;20025;-83
2023/03/21 13:41:31;;;;;;;2.95;1.15;;;;;;;;;;4996568;28;20053;-84
2023/03/21 13:50:19;;;;;;;2.92;1.33;;;;;;;;;;4927908;29;20677;-79
2023/03/21 13:53:03;;;;;;;1.42;0.93;;;;;;;;;;4998571;28;20041;-81
2023/03/21 13:55:50;;;;;;;6.57;1.52;;;;;;;;;;5002140;28;20096;-82
2023/03/21 13:59:08;;;;;;;4.65;1.38;;;;;;;;;;4984417;28;20029;-86
2023/03/21 14:01:30;;;;;;;2.83;1.33;;;;;;;;;;5006005;28;20664;-81
2023/03/21 14:04:09;;;;;;;3.08;1.50;;;;;;;;;;5019940;28;20025;-87
2023/03/21 14:07:05;;;;;;;3.05;1.40;;;;;;;;;;4988230;28;20037;-83
2023/03/21 14:09:39;;;;;;;2.13;1.23;;;;;;;;;;4987071;28;20558;-86
2023/03/21 14:12:08;;;;;;;2.88;1.35;;;;;;;;;;5010718;28;20041;-87
2023/03/21 14:14:45;;;;;;;1.85;1.10;;;;;;;;;;5012777;28;20087;-87
2023/03/21 14:17:15;;;;;;;1.70;1.40;;;;;;;;;;5014863;28;20040;-87
2023/03/21 14:19:51;;;;;;;2.00;1.33;;;;;;;;;;5000770;28;20474;-87
2023/03/21 14:22:27;;;;;;;3.80;1.30;;;;;;;;;;5011921;28;20021;-88
2023/03/21 14:25:00;;;;;;;3.28;1.42;;;;;;;;;;4997536;28;20026;-88
2023/03/21 14:27:34;;;;;;;3.25;1.33;;;;;;;;;;4998150;28;20030;-87
2023/03/21 14:30:01;;;;;;;2.13;1.45;;;;;;;;;;4992298;28;20478;-86
2023/03/21 14:32:33;;;;;;;2.15;1.75;;;;;;;;;;5007823;28;20518;-86
2023/03/21 14:35:02;;;;;;;3.88;1.30;;;;;;;;;;4994145;28;20080;-86
2023/03/21 14:37:32;;;;;;;2.90;1.40;;;;;;;;;;4997226;28;20014;-88
2023/03/21 14:39:59;;;;;;;2.08;1.02;;;;;;;;;;4992086;28;20116;-87
2023/03/21 14:42:26;;;;;;;3.08;1.38;;;;;;;;;;5006109;28;20125;-86
2023/03/21 14:45:13;;;;;;;4.20;1.63;;;;;;;;;;5016104;28;20057;-88
2023/03/21 14:47:40;;;;;;;3.53;1.20;;;;;;;;;;4999934;28;20619;-84
2023/03/21 14:50:10;;;;;;;2.45;1.67;;;;;;;;;;5007486;28;20120;-83
2023/03/21 14:52:37;;;;;;;2.55;1.30;;;;;;;;;;4993423;28;20031;-79
2023/03/21 14:55:14;;;;;;;2.97;1.40;;;;;;;;;;4996626;28;20034;-81
2023/03/21 14:57:41;;;;;;;3.15;1.55;;;;;;;;;;5021060;28;20029;-78
2023/03/21 15:00:11;;;;;;;2.25;1.30;;;;;;;;;;4993133;28;20355;-82
2023/03/21 15:02:39;;;;;;;1.92;1.52;;;;;;;;;;5000018;28;20129;-79
2023/03/21 15:05:09;;;;;;;3.20;1.48;;;;;;;;;;5009616;28;20029;-81
2023/03/21 15:07:35;;;;;;;2.25;1.52;;;;;;;;;;5013765;28;20067;-82
2023/03/21 15:10:07;;;;;;;4.95;1.55;;;;;;;;;;5008189;28;20041;-84
2023/03/21 15:12:33;;;;;;;1.47;1.37;;;;;;;;;;4995098;28;20021;-80
2023/03/21 15:15:00;;;;;;;2.38;1.33;;;;;;;;;;4988774;28;20083;-83
2023/03/21 15:17:30;;;;;;;3.92;1.50;;;;;;;;;;4993332;28;20036;-81
2023/03/21 15:19:56;;;;;;;1.75;1.15;;;;;;;;;;5008289;28;20034;-84
2023/03/21 15:22:49;;;;;;;1.30;1.10;;;;;;;;;;5006620;28;20124;-82
2023/03/21 15:25:18;;;;;;;3.88;1.38;;;;;;;;;;4998720;28;20045;-81
2023/03/21 15:27:45;;;;;;;2.50;1.52;;;;;;;;;;5007020;28;20033;-79
2023/03/21 15:30:26;;;;;;;2.13;1.92;;;;;;;;;;5018790;28;20041;-78
2023/03/21 15:32:53;;;;;;;2.35;1.13;;;;;;;;;;5011064;28;20030;-86
2023/03/21 15:35:22;;;;;;;2.08;1.20;;;;;;;;;;5009902;28;20029;-84
2023/03/21 15:37:52;;;;;;;3.58;2.15;;;;;;;;;;5005476;28;20894;-85
2023/03/21 15:40:21;;;;;;;2.67;1.42;;;;;;;;;;4990003;28;20117;-85
2023/03/21 15:42:47;;;;;;;2.20;1.50;;;;;;;;;;5004778;28;20328;-84
2023/03/21 15:45:19;;;;;;;2.35;1.42;;;;;;;;;;4990527;28;20029;-83
2023/03/21 15:47:48;;;;;;;3.53;1.30;;;;;;;;;;5007113;28;20168;-82
2023/03/21 15:50:25;;;;;;;3.30;1.67;;;;;;;;;;5006240;28;20125;-82
2023/03/21 15:52:52;;;;;;;2.50;1.40;;;;;;;;;;5014018;28;20077;-81
2023/03/21 15:55:25;;;;;;;4.43;2.53;;;;;;;;;;5006870;28;20504;-80
2023/03/21 15:57:53;;;;;;;3.75;1.55;;;;;;;;;;4993176;28;20593;-78
2023/03/21 16:00:24;;;;;;;1.50;1.17;;;;;;;;;;4990708;28;20033;-83
2023/03/21 16:02:56;;;;;;;4.05;1.83;;;;;;;;;;5016006;28;20020;-80
2023/03/21 16:05:30;;;;;;;2.17;1.30;;;;;;;;;;4993928;28;20030;-82
2023/03/21 16:08:04;;;;;;;3.47;1.55;;;;;;;;;;5012528;28;20017;-83
2023/03/21 16:10:32;;;;;;;2.35;1.63;;;;;;;;;;5007998;28;20406;-81
2023/03/21 16:12:59;;;;;;;2.70;1.33;;;;;;;;;;4999561;28;20082;-80
2023/03/21 16:15:26;;;;;;;2.88;1.55;;;;;;;;;;5017614;28;20034;-80
2023/03/21 16:18:03;;;;;;;5.15;1.77;;;;;;;;;;5001655;28;20079;-85
2023/03/21 16:20:39;;;;;;;3.05;1.20;;;;;;;;;;5004789;28;20022;-85
2023/03/21 16:23:06;;;;;;;2.28;1.17;;;;;;;;;;5016428;28;20504;-77
2023/03/21 16:25:34;;;;;;;1.60;1.20;;;;;;;;;;4994385;28;20118;-79
2023/03/21 16:28:00;;;;;;;4.28;1.60;;;;;;;;;;4995777;28;20348;-82
2023/03/21 16:30:26;;;;;;;2.30;1.10;;;;;;;;;;5007520;28;20029;-81
2023/03/21 16:32:53;;;;;;;2.85;1.50;;;;;;;;;;4988087;28;20061;-83
2023/03/21 16:35:20;;;;;;;2.55;1.38;;;;;;;;;;5009085;28;20119;-79
2023/03/21 16:37:47;;;;;;;2.10;1.40;;;;;;;;;;5012558;28;20440;-76